Time;durP1;ratioP1;P1;durP2;ratioP2;P2;SDS_P1;SDS_P2;PMS_P1;PMS_P2;Temp;Humidity;BMP_temperature;BMP_pressure;BME280_temperature;BME280_humidity;BME280_pressure;Samples;Min_cycle;Max_cycle;Signal;HPM_P1;HPM_P2
2022/06/09 00:01:17;;;;;;;3.05;1.70;;;;;;;16.70;77.80;100046.50;4210585;28;20135;-67
2022/06/09 00:03:25;;;;;;;5.85;1.65;;;;;;;16.69;77.68;100046.53;4213668;28;20100;-66
2022/06/09 00:05:29;;;;;;;3.97;1.92;;;;;;;16.73;77.52;100046.47;4209890;28;20408;-67
2022/06/09 00:07:35;;;;;;;2.25;1.80;;;;;;;16.85;76.91;100055.00;4211676;28;20051;-66
2022/06/09 00:09:44;;;;;;;2.25;1.80;;;;;;;16.81;77.55;100053.34;4208630;28;20050;-67
2022/06/09 00:11:50;;;;;;;2.42;1.75;;;;;;;16.77;77.57;100057.78;4209595;28;20405;-67
2022/06/09 00:13:53;;;;;;;10.60;1.90;;;;;;;16.79;77.73;100055.13;4204605;28;20040;-67
2022/06/09 00:15:56;;;;;;;4.70;1.95;;;;;;;16.80;77.76;100054.22;4199689;28;20064;-67
2022/06/09 00:17:59;;;;;;;1.80;1.40;;;;;;;16.78;77.42;100056.00;4204618;28;20131;-67
2022/06/09 00:20:03;;;;;;;4.40;2.17;;;;;;;16.72;77.43;100050.00;4205410;28;20054;-67
2022/06/09 00:22:06;;;;;;;4.27;1.80;;;;;;;16.66;77.57;100055.34;4207945;28;20042;-67
2022/06/09 00:24:10;;;;;;;2.65;1.42;;;;;;;16.63;77.91;100054.53;4202265;28;20803;-67
2022/06/09 00:26:13;;;;;;;2.40;1.38;;;;;;;16.52;77.99;100050.31;4198210;28;20517;-67
2022/06/09 00:28:17;;;;;;;2.47;1.50;;;;;;;16.46;78.25;100058.31;4208209;28;20048;-67
2022/06/09 00:30:20;;;;;;;3.22;1.40;;;;;;;16.48;78.55;100058.28;4182367;28;20048;-67
2022/06/09 00:32:23;;;;;;;2.35;1.67;;;;;;;16.53;78.39;100057.31;4228914;28;20045;-67
2022/06/09 00:34:26;;;;;;;2.67;1.77;;;;;;;16.58;78.12;100054.59;4207810;28;20131;-67
2022/06/09 00:36:29;;;;;;;4.28;2.30;;;;;;;16.62;78.01;100048.41;4199353;28;20501;-67
2022/06/09 00:38:32;;;;;;;2.22;1.70;;;;;;;16.64;77.73;100054.50;4204375;28;20044;-67
2022/06/09 00:40:37;;;;;;;3.00;2.28;;;;;;;16.64;77.59;100059.75;4214574;28;20070;-67
2022/06/09 00:42:40;;;;;;;5.22;2.97;;;;;;;16.61;77.78;100057.19;4206048;28;20043;-67
2022/06/09 00:44:44;;;;;;;6.50;3.60;;;;;;;16.62;77.46;100051.03;4201550;28;20037;-67
2022/06/09 00:46:50;;;;;;;7.65;4.20;;;;;;;16.61;77.63;100057.19;4200555;28;20040;-67
2022/06/09 00:48:56;;;;;;;4.88;2.97;;;;;;;16.58;77.31;100067.72;4207763;28;20060;-67
2022/06/09 00:51:05;;;;;;;6.18;4.05;;;;;;;16.58;77.51;100068.59;4210634;28;20497;-67
2022/06/09 00:53:14;;;;;;;6.07;3.10;;;;;;;16.53;77.41;100056.47;4210964;28;20473;-67
2022/06/09 00:55:19;;;;;;;4.93;2.80;;;;;;;16.53;77.49;100061.72;4198071;28;20047;-67
2022/06/09 00:57:28;;;;;;;10.50;4.22;;;;;;;16.51;78.00;100068.72;4205075;28;20050;-67
2022/06/09 00:59:32;;;;;;;4.78;3.40;;;;;;;16.47;78.01;100067.91;4213044;28;20548;-67
2022/06/09 01:01:35;;;;;;;5.70;3.67;;;;;;;16.44;77.99;100067.97;4206264;28;20032;-67
2022/06/09 01:03:43;;;;;;;5.43;2.92;;;;;;;16.48;77.76;100071.41;4204456;28;20044;-67
2022/06/09 01:05:48;;;;;;;3.78;3.03;;;;;;;16.48;77.57;100079.28;4211493;28;20044;-67
2022/06/09 01:07:56;;;;;;;5.07;2.40;;;;;;;16.48;78.14;100074.88;4208841;28;20070;-67
2022/06/09 01:09:59;;;;;;;7.88;3.47;;;;;;;16.46;78.02;100073.19;4212430;28;20132;-67
2022/06/09 01:12:02;;;;;;;5.57;3.90;;;;;;;16.44;77.94;100074.97;4204146;28;20033;-66
2022/06/09 01:14:08;;;;;;;5.53;3.60;;;;;;;16.44;77.86;100080.19;4198532;28;20036;-67
2022/06/09 01:16:22;;;;;;;10.18;5.05;;;;;;;16.42;77.77;100076.75;4207520;28;20039;-67
2022/06/09 01:18:39;;;;;;;6.90;4.77;;;;;;;16.43;77.62;100075.84;4208572;28;20128;-67
2022/06/09 01:20:49;;;;;;;7.72;4.93;;;;;;;16.42;77.90;100074.13;4207249;28;20047;-67
2022/06/09 01:23:25;;;;;;;7.70;4.32;;;;;;;16.40;77.77;100072.38;4200544;28;20047;-67
2022/06/09 01:25:53;;;;;;;6.75;3.97;;;;;;;16.37;77.84;100072.44;4182187;28;20056;-67
2022/06/09 01:28:12;;;;;;;3.80;3.45;;;;;;;16.38;78.00;100076.81;4206838;28;20047;-67
2022/06/09 01:30:20;;;;;;;5.72;3.35;;;;;;;16.38;77.82;100076.81;4207837;28;20040;-67
2022/06/09 01:32:28;;;;;;;6.47;4.43;;;;;;;16.37;78.03;100080.31;4204371;28;20036;-67
2022/06/09 01:34:40;;;;;;;3.88;2.92;;;;;;;16.35;78.15;100087.34;4206867;28;20040;-67
2022/06/09 01:36:49;;;;;;;7.30;3.80;;;;;;;16.32;78.05;100087.38;4205508;28;20044;-67
2022/06/09 01:38:56;;;;;;;7.50;4.47;;;;;;;16.33;77.93;100088.25;4210000;28;20048;-70
2022/06/09 01:40:59;;;;;;;6.13;3.03;;;;;;;16.26;78.00;100092.72;4206705;28;20056;-67
2022/06/09 01:43:03;;;;;;;7.35;3.13;;;;;;;16.28;78.25;100093.56;4198553;28;20051;-67
2022/06/09 01:45:10;;;;;;;6.55;3.95;;;;;;;16.23;78.25;100093.63;4201362;28;20040;-67
2022/06/09 01:47:16;;;;;;;11.00;3.00;;;;;;;16.16;77.81;100097.22;4207871;28;20043;-67
2022/06/09 01:49:25;;;;;;;9.35;3.15;;;;;;;16.12;77.42;100094.66;4204787;28;20123;-67
2022/06/09 01:51:49;;;;;;;5.13;2.00;;;;;;;16.01;76.91;100098.31;4205614;28;20056;-67
2022/06/09 01:53:58;;;;;;;5.60;1.83;;;;;;;15.97;76.36;100098.38;4197870;28;20036;-67
2022/06/09 01:56:07;;;;;;;3.33;1.50;;;;;;;15.88;75.58;100105.47;4202029;28;20074;-66
2022/06/09 01:58:13;;;;;;;6.10;1.98;;;;;;;15.90;76.51;100108.06;4200313;28;20123;-67
2022/06/09 02:00:19;;;;;;;3.35;1.30;;;;;;;15.92;76.36;100111.56;4211585;28;20140;-67
2022/06/09 02:02:27;;;;;;;4.43;1.63;;;;;;;15.94;75.66;100107.16;4204613;28;20593;-67
2022/06/09 02:04:35;;;;;;;6.10;2.00;;;;;;;15.92;75.75;100098.44;4206610;28;20546;-67
2022/06/09 02:06:39;;;;;;;4.53;1.70;;;;;;;15.95;76.07;100103.66;4200413;28;20067;-67
2022/06/09 02:08:43;;;;;;;3.17;1.52;;;;;;;15.95;76.24;100100.19;4201050;28;20044;-67
2022/06/09 02:10:48;;;;;;;5.38;2.03;;;;;;;15.96;76.48;100094.91;4206930;28;20131;-67
2022/06/09 02:12:51;;;;;;;5.97;2.47;;;;;;;15.94;76.72;100091.41;4200599;28;20086;-67
2022/06/09 02:14:58;;;;;;;4.60;1.70;;;;;;;15.93;76.86;100094.94;4210798;28;20036;-67
2022/06/09 02:17:03;;;;;;;5.22;2.00;;;;;;;15.92;76.43;100106.31;4206151;28;20057;-67
2022/06/09 02:19:06;;;;;;;5.32;2.45;;;;;;;15.94;76.96;100106.28;4209042;28;20045;-68
2022/06/09 02:21:16;;;;;;;4.70;1.63;;;;;;;15.96;76.94;100102.78;4197142;28;20042;-67
2022/06/09 02:23:26;;;;;;;5.70;1.80;;;;;;;15.90;76.97;100105.44;4200458;28;20198;-67
2022/06/09 02:25:29;;;;;;;3.85;1.95;;;;;;;15.91;77.27;100114.22;4203032;28;20596;-68
2022/06/09 02:27:32;;;;;;;5.22;2.00;;;;;;;15.94;77.20;100108.91;4204868;28;20032;-67
2022/06/09 02:29:35;;;;;;;5.80;2.10;;;;;;;15.95;76.81;100113.28;4208622;28;20042;-67
2022/06/09 02:31:38;;;;;;;5.10;2.30;;;;;;;15.90;76.80;100115.94;4202968;28;20036;-67
2022/06/09 02:33:41;;;;;;;5.35;1.83;;;;;;;15.93;76.46;100113.31;4198196;28;20453;-66
2022/06/09 02:35:44;;;;;;;7.40;2.00;;;;;;;15.99;76.16;100114.94;4197932;28;20048;-67
2022/06/09 02:37:49;;;;;;;5.78;1.90;;;;;;;15.97;75.42;100117.59;4202367;28;20040;-67
2022/06/09 02:39:52;;;;;;;4.95;2.00;;;;;;;15.98;76.03;100108.84;4205619;28;20032;-66
2022/06/09 02:41:55;;;;;;;6.38;2.17;;;;;;;16.00;76.56;100119.31;4205539;28;20135;-67
2022/06/09 02:43:58;;;;;;;10.60;2.30;;;;;;;16.01;76.51;100116.66;4206781;28;20052;-67
2022/06/09 02:46:01;;;;;;;6.13;2.13;;;;;;;16.04;76.57;100113.16;4195407;28;20063;-67
2022/06/09 02:48:05;;;;;;;3.53;2.05;;;;;;;16.03;76.37;100116.66;4188675;28;20065;-67
2022/06/09 02:50:09;;;;;;;3.70;1.53;;;;;;;16.00;76.40;100119.31;4221845;28;20063;-67
2022/06/09 02:52:12;;;;;;;4.05;1.80;;;;;;;15.99;76.72;100123.69;4206960;28;20385;-67
2022/06/09 02:54:16;;;;;;;4.70;1.80;;;;;;;15.98;75.80;100124.59;4206897;28;20033;-66
2022/06/09 02:56:20;;;;;;;3.00;1.60;;;;;;;15.99;75.83;100128.94;4195543;28;20051;-67
2022/06/09 02:58:22;;;;;;;3.13;1.95;;;;;;;16.01;76.25;100118.44;4203945;28;20117;-66
2022/06/09 03:00:25;;;;;;;6.13;1.95;;;;;;;15.98;75.85;100129.81;4210983;28;20535;-66
2022/06/09 03:02:28;;;;;;;6.55;2.55;;;;;;;15.86;75.01;100130.00;4210499;28;20050;-66
2022/06/09 03:04:31;;;;;;;3.72;1.90;;;;;;;15.75;75.49;100131.84;4201644;28;20043;-66
2022/06/09 03:06:35;;;;;;;4.90;2.63;;;;;;;15.73;75.60;100138.88;4186634;28;20048;-67
2022/06/09 03:08:38;;;;;;;3.35;2.10;;;;;;;15.71;76.23;100134.50;4209618;28;20111;-67
2022/06/09 03:10:43;;;;;;;4.72;1.77;;;;;;;15.74;76.06;100137.97;4213092;28;20123;-67
2022/06/09 03:12:46;;;;;;;3.45;1.88;;;;;;;15.72;76.17;100138.00;4201047;28;20044;-67
2022/06/09 03:14:49;;;;;;;5.75;2.47;;;;;;;15.75;76.24;100131.84;4205149;28;20046;-66
2022/06/09 03:16:52;;;;;;;4.43;1.90;;;;;;;15.73;75.85;100138.88;4209496;28;20517;-66
2022/06/09 03:18:55;;;;;;;4.55;2.08;;;;;;;15.75;75.94;100139.72;4200761;28;20067;-67
2022/06/09 03:20:58;;;;;;;4.80;2.10;;;;;;;15.76;76.30;100144.06;4201792;28;20098;-67
2022/06/09 03:23:01;;;;;;;4.05;2.10;;;;;;;15.73;75.37;100144.13;4196531;28;20144;-67
2022/06/09 03:25:05;;;;;;;5.68;2.10;;;;;;;15.71;75.45;100145.00;4204993;28;20036;-67
2022/06/09 03:27:10;;;;;;;8.75;2.70;;;;;;;15.67;76.01;100150.28;4207120;28;20475;-67
2022/06/09 03:29:13;;;;;;;;;;;;;;;15.52;76.36;100153.94;4209241;28;20078;-67
2022/06/09 03:31:17;;;;;;;2.80;1.60;;;;;;;15.57;76.23;100146.91;4198437;28;19928;-67
2022/06/09 03:33:20;;;;;;;;;;;;;;;15.41;75.79;100153.22;4197719;28;20043;-67
2022/06/09 03:35:23;;;;;;;5.07;2.03;;;;;;;15.40;76.22;100147.06;4210526;28;19927;-67
2022/06/09 03:37:26;;;;;;;4.28;2.08;;;;;;;15.48;76.48;100153.13;4214679;28;20046;-67
2022/06/09 03:39:29;;;;;;;3.45;1.95;;;;;;;15.49;75.71;100151.34;4213060;28;20040;-67
2022/06/09 03:41:32;;;;;;;4.38;2.00;;;;;;;15.48;75.81;100144.41;4183202;28;20115;-67
2022/06/09 03:43:40;;;;;;;7.45;2.95;;;;;;;15.50;75.91;100151.34;4205562;28;20036;-67
2022/06/09 03:45:43;;;;;;;4.10;1.90;;;;;;;15.50;75.99;100146.09;4202282;28;20044;-67
2022/06/09 03:47:46;;;;;;;6.18;2.00;;;;;;;15.55;75.19;100151.31;4211128;28;20109;-66
2022/06/09 03:49:49;;;;;;;6.28;2.13;;;;;;;15.59;75.44;100158.22;4195966;28;20047;-67
2022/06/09 03:51:51;;;;;;;7.35;3.30;;;;;;;15.60;76.18;100154.72;4208276;28;20041;-67
2022/06/09 03:53:54;;;;;;;11.75;2.97;;;;;;;15.61;75.40;100156.47;4200039;28;20029;-66
2022/06/09 03:55:57;;;;;;;7.57;2.40;;;;;;;15.58;75.16;100166.09;4210197;28;20032;-67
2022/06/09 03:58:00;;;;;;;10.00;3.53;;;;;;;15.50;74.21;100155.72;4211526;28;20090;-66
2022/06/09 04:00:06;;;;;;;12.65;4.38;;;;;;;15.47;74.87;100163.63;4211664;28;20072;-66
2022/06/09 04:02:09;;;;;;;8.85;3.33;;;;;;;15.44;74.47;100166.28;4198891;28;20036;-66
2022/06/09 04:04:12;;;;;;;12.57;4.50;;;;;;;15.47;75.34;100169.72;4199697;28;20378;-66
2022/06/09 04:06:17;;;;;;;13.10;4.22;;;;;;;15.54;75.19;100168.75;4215115;28;20040;-66
2022/06/09 04:08:20;;;;;;;16.48;5.90;;;;;;;15.60;74.57;100169.59;4200603;28;20052;-66
2022/06/09 04:10:26;;;;;;;15.68;5.93;;;;;;;15.66;74.70;100170.38;4201753;28;20043;-67
2022/06/09 04:12:29;;;;;;;10.18;3.65;;;;;;;15.69;74.62;100174.72;4208861;28;20047;-66
2022/06/09 04:14:32;;;;;;;11.80;4.10;;;;;;;15.76;74.65;100170.28;4213977;28;20094;-66
2022/06/09 04:16:39;;;;;;;8.85;3.20;;;;;;;15.76;74.55;100170.28;4211424;28;20516;-66
2022/06/09 04:18:42;;;;;;;10.15;2.63;;;;;;;15.74;74.29;100172.03;4216337;28;20063;-67
2022/06/09 04:20:45;;;;;;;7.97;2.50;;;;;;;15.68;73.37;100181.72;4213787;28;20043;-66
2022/06/09 04:22:48;;;;;;;5.07;1.95;;;;;;;15.62;73.75;100181.75;4214555;28;20033;-67
2022/06/09 04:24:51;;;;;;;7.55;2.20;;;;;;;15.66;74.29;100180.00;4216238;28;20032;-67
2022/06/09 04:26:54;;;;;;;7.20;2.50;;;;;;;15.74;74.50;100188.66;4216185;28;20592;-67
2022/06/09 04:28:57;;;;;;;5.80;2.45;;;;;;;15.80;75.08;100190.34;4216449;28;20393;-67
2022/06/09 04:31:00;;;;;;;7.35;2.30;;;;;;;15.82;74.52;100183.34;4214292;28;20053;-67
2022/06/09 04:33:04;;;;;;;6.47;2.35;;;;;;;15.88;74.04;100191.13;4217472;28;20039;-70
2022/06/09 04:35:08;;;;;;;6.28;2.67;;;;;;;15.92;74.07;100190.22;4213463;28;20048;-67
2022/06/09 04:37:11;;;;;;;4.78;2.20;;;;;;;15.87;74.30;100189.38;4206386;28;20103;-67
2022/06/09 04:39:14;;;;;;;4.05;2.20;;;;;;;15.88;74.15;100196.38;4211775;28;20042;-67
2022/06/09 04:41:18;;;;;;;5.10;1.88;;;;;;;15.86;73.80;100193.78;4213827;28;20521;-67
2022/06/09 04:43:21;;;;;;;5.43;2.40;;;;;;;15.87;74.07;100200.75;4216371;28;20123;-67
2022/06/09 04:45:24;;;;;;;8.68;2.55;;;;;;;15.89;73.51;100211.22;4211242;28;20747;-67
2022/06/09 04:47:27;;;;;;;3.72;1.95;;;;;;;15.88;73.53;100212.09;4211370;28;20508;-67
2022/06/09 04:49:31;;;;;;;11.57;2.78;;;;;;;15.94;73.81;100222.50;4190024;28;20072;-67
2022/06/09 04:51:34;;;;;;;5.63;2.10;;;;;;;15.94;73.54;100214.66;4198342;28;20043;-67
2022/06/09 04:53:37;;;;;;;4.70;2.00;;;;;;;15.96;73.39;100223.38;4198133;28;20460;-67
2022/06/09 04:55:41;;;;;;;6.22;1.70;;;;;;;16.01;72.82;100218.94;4199428;28;20103;-67
2022/06/09 04:57:44;;;;;;;5.68;2.10;;;;;;;16.02;73.35;100215.44;4213730;28;20055;-67
2022/06/09 04:59:47;;;;;;;4.10;1.85;;;;;;;16.04;73.90;100223.28;4208164;28;20043;-67
2022/06/09 05:01:50;;;;;;;4.72;2.05;;;;;;;16.08;73.47;100231.97;4210273;28;20119;-67
2022/06/09 05:03:53;;;;;;;7.15;2.00;;;;;;;16.10;73.12;100232.81;4212685;28;20126;-67
2022/06/09 05:05:58;;;;;;;3.83;1.65;;;;;;;16.12;73.38;100231.94;4208152;28;20040;-67
2022/06/09 05:08:01;;;;;;;9.55;2.50;;;;;;;16.09;72.78;100247.72;4209988;28;20112;-67
2022/06/09 05:10:04;;;;;;;6.32;1.73;;;;;;;16.08;72.76;100247.69;4207296;28;20116;-67
2022/06/09 05:12:07;;;;;;;4.70;1.92;;;;;;;16.07;73.27;100254.69;4211194;28;20032;-67
2022/06/09 05:14:12;;;;;;;7.38;2.03;;;;;;;16.01;72.07;100254.78;4210142;28;20127;-67
2022/06/09 05:16:15;;;;;;;;;;;;;;;15.84;72.32;100253.22;4198090;28;20528;-67
2022/06/09 05:18:19;;;;;;;4.47;1.70;;;;;;;15.84;71.47;100257.56;4199073;28;19920;-67
2022/06/09 05:20:24;;;;;;;10.25;2.90;;;;;;;15.84;71.65;100263.72;4197699;28;20544;-67
2022/06/09 05:22:28;;;;;;;4.40;1.88;;;;;;;15.83;71.16;100268.97;4205481;28;20163;-67
2022/06/09 05:24:31;;;;;;;6.60;1.88;;;;;;;15.73;70.36;100267.31;4197460;28;20521;-67
2022/06/09 05:26:34;;;;;;;6.10;2.38;;;;;;;15.79;70.28;100275.13;4197344;28;20064;-66
2022/06/09 05:28:37;;;;;;;8.55;2.00;;;;;;;15.77;69.86;100272.50;4198892;28;20040;-67
2022/06/09 05:30:39;;;;;;;7.68;2.25;;;;;;;15.86;70.09;100282.91;4198620;28;20138;-67
2022/06/09 05:32:42;;;;;;;5.28;1.70;;;;;;;15.95;70.38;100281.06;4205878;28;20408;-67
2022/06/09 05:34:45;;;;;;;7.78;1.80;;;;;;;15.86;69.15;100284.66;4215693;28;20054;-67
2022/06/09 05:36:48;;;;;;;7.32;2.13;;;;;;;15.89;69.52;100284.63;4215092;28;20055;-67
2022/06/09 05:45:56;;;;;;;15.30;2.33;;;;;;;15.92;69.83;100289.84;4206388;28;20058;-67
2022/06/09 05:47:59;;;;;;;5.38;1.58;;;;;;;15.92;69.27;100292.47;4210692;28;20040;-66
2022/06/09 05:50:03;;;;;;;8.05;2.10;;;;;;;15.88;69.44;100296.84;4215357;28;20073;-66
2022/06/09 05:52:07;;;;;;;6.80;1.75;;;;;;;15.84;68.39;100299.53;4214978;28;20062;-67
2022/06/09 05:54:11;;;;;;;5.33;1.93;;;;;;;15.75;68.71;100300.44;4213829;28;20040;-68
2022/06/09 05:56:16;;;;;;;6.97;1.80;;;;;;;15.63;68.03;100309.28;4190725;28;20048;-67
2022/06/09 05:58:19;;;;;;;6.00;1.70;;;;;;;15.74;68.85;100313.56;4212635;28;20040;-67
2022/06/09 06:00:22;;;;;;;7.28;1.80;;;;;;;15.80;69.88;100319.66;4215277;28;20044;-67
2022/06/09 06:02:27;;;;;;;4.43;1.65;;;;;;;15.83;69.62;100319.63;4213692;28;20044;-67
2022/06/09 06:04:30;;;;;;;8.52;1.88;;;;;;;15.90;69.30;100315.19;4212654;28;20052;-67
2022/06/09 06:06:35;;;;;;;5.90;2.30;;;;;;;15.96;68.66;100316.88;4188731;28;20040;-68
2022/06/09 06:08:46;;;;;;;7.07;1.98;;;;;;;15.91;67.99;100323.94;4205705;28;20036;-65
2022/06/09 06:10:51;;;;;;;7.47;2.42;;;;;;;15.99;67.82;100324.69;4213639;28;20032;-67
2022/06/09 06:12:54;;;;;;;6.00;2.00;;;;;;;15.93;67.82;100336.16;4214828;28;20040;-67
2022/06/09 06:14:58;;;;;;;6.80;1.90;;;;;;;15.85;67.81;100335.34;4214890;28;20036;-67
2022/06/09 06:17:01;;;;;;;5.25;1.50;;;;;;;15.84;67.53;100341.47;4208335;28;20536;-65
2022/06/09 06:19:06;;;;;;;6.07;1.98;;;;;;;15.82;67.19;100343.25;4208519;28;20043;-66
2022/06/09 06:21:09;;;;;;;10.25;1.80;;;;;;;15.78;67.41;100346.75;4211804;28;20040;-67
2022/06/09 06:23:12;;;;;;;8.10;2.53;;;;;;;15.76;67.34;100348.50;4214829;28;20524;-67
2022/06/09 06:25:15;;;;;;;6.68;2.25;;;;;;;15.87;68.14;100357.16;4213448;28;20043;-67
2022/06/09 06:27:20;;;;;;;5.68;1.80;;;;;;;15.95;68.18;100357.09;4214303;28;20032;-65
2022/06/09 06:29:42;;;;;;;6.55;2.35;;;;;;;15.93;67.22;100367.63;4206053;28;20390;-65
2022/06/09 06:31:45;;;;;;;4.93;1.80;;;;;;;15.88;67.42;100372.00;4197902;28;20044;-65
2022/06/09 06:33:48;;;;;;;9.45;2.47;;;;;;;15.86;67.13;100379.91;4197804;28;20067;-65
2022/06/09 06:35:51;;;;;;;7.55;1.38;;;;;;;15.83;67.33;100374.69;4197524;28;20068;-65
2022/06/09 06:37:54;;;;;;;7.93;2.20;;;;;;;15.86;66.92;100377.28;4199593;28;20036;-67
2022/06/09 06:39:57;;;;;;;6.38;1.90;;;;;;;15.83;67.48;100382.56;4210696;28;20039;-67
2022/06/09 06:42:00;;;;;;;7.07;1.83;;;;;;;15.87;67.67;100384.25;4210074;28;20042;-67
2022/06/09 06:44:12;;;;;;;3.38;1.50;;;;;;;15.91;67.52;100392.97;4213284;28;20052;-67
2022/06/09 06:46:16;;;;;;;5.05;1.50;;;;;;;15.99;66.90;100393.78;4212950;28;20109;-67
2022/06/09 06:48:19;;;;;;;8.63;1.92;;;;;;;15.91;66.79;100395.56;4208294;28;20115;-65
2022/06/09 06:50:22;;;;;;;8.32;1.88;;;;;;;16.02;66.83;100409.47;4205851;28;20511;-65
2022/06/09 06:52:25;;;;;;;9.38;1.90;;;;;;;15.88;66.06;100401.72;4211880;28;20044;-65
2022/06/09 06:54:28;;;;;;;6.97;1.67;;;;;;;15.75;66.46;100414.91;4213101;28;20044;-67
2022/06/09 06:56:32;;;;;;;7.10;1.73;;;;;;;15.67;66.04;100423.69;4213794;28;20116;-67
2022/06/09 06:58:35;;;;;;;7.75;2.30;;;;;;;15.60;65.70;100429.00;4205509;28;20071;-65
2022/06/09 07:00:40;;;;;;;8.75;2.13;;;;;;;15.53;65.90;100433.41;4205707;28;20468;-65
2022/06/09 07:02:43;;;;;;;9.40;2.22;;;;;;;15.65;65.75;100424.59;4212941;28;20580;-65
2022/06/09 07:05:08;;;;;;;8.20;1.65;;;;;;;15.57;66.10;100435.13;4212260;28;20059;-65
2022/06/09 07:07:11;;;;;;;6.93;2.13;;;;;;;15.64;65.61;100436.84;4212586;28;20416;-66
2022/06/09 07:09:13;;;;;;;11.35;2.45;;;;;;;15.58;65.64;100439.50;4211478;28;20040;-65
2022/06/09 07:11:16;;;;;;;8.65;2.60;;;;;;;15.62;65.80;100438.56;4203900;28;20128;-65
2022/06/09 07:13:20;;;;;;;9.55;1.88;;;;;;;15.70;65.98;100439.41;4202785;28;20028;-66
2022/06/09 07:15:23;;;;;;;7.68;1.70;;;;;;;15.66;65.75;100437.69;4205553;28;20036;-65
2022/06/09 07:17:27;;;;;;;11.15;1.70;;;;;;;15.71;66.24;100446.38;4195679;28;20051;-65
2022/06/09 07:19:30;;;;;;;7.18;1.63;;;;;;;15.79;65.44;100445.50;4213896;28;20061;-65
2022/06/09 07:21:33;;;;;;;5.63;1.60;;;;;;;15.83;65.85;100450.72;4212943;28;20040;-65
2022/06/09 07:23:37;;;;;;;4.45;1.88;;;;;;;15.92;65.98;100456.78;4204404;28;20075;-65
2022/06/09 07:25:40;;;;;;;5.85;1.90;;;;;;;15.96;65.76;100455.84;4204206;28;20486;-65
2022/06/09 07:27:43;;;;;;;13.15;2.88;;;;;;;15.90;65.97;100463.75;4212754;28;20123;-65
2022/06/09 07:29:46;;;;;;;7.20;1.80;;;;;;;15.82;65.97;100464.69;4212699;28;20046;-65
2022/06/09 07:31:49;;;;;;;4.88;1.55;;;;;;;15.71;66.24;100476.94;4213959;28;20130;-65
2022/06/09 07:33:53;;;;;;;8.35;2.70;;;;;;;15.66;65.69;100470.88;4211651;28;20046;-65
2022/06/09 07:35:58;;;;;;;5.15;1.63;;;;;;;15.62;65.49;100470.03;4203820;28;20132;-65
2022/06/09 07:38:04;;;;;;;8.25;2.28;;;;;;;15.78;66.03;100468.19;4195882;28;20079;-66
2022/06/09 07:40:09;;;;;;;7.65;1.88;;;;;;;15.82;65.54;100463.81;4212470;28;20052;-65
2022/06/09 07:42:12;;;;;;;;;;;;;;;15.72;65.21;100468.22;4212658;28;20115;-65
2022/06/09 07:44:15;;;;;;;7.85;2.15;;;;;;;15.85;65.37;100472.53;4205290;28;20011;-65
2022/06/09 07:46:19;;;;;;;9.50;2.42;;;;;;;15.95;65.13;100465.47;4211993;28;20059;-65
2022/06/09 07:48:22;;;;;;;11.07;1.85;;;;;;;16.01;64.91;100460.16;4212568;28;20074;-65
2022/06/09 07:50:49;;;;;;;9.82;2.15;;;;;;;16.05;65.44;100461.88;4212033;28;20036;-65
2022/06/09 07:52:52;;;;;;;7.63;1.80;;;;;;;16.15;65.36;100464.41;4205089;28;20040;-65
2022/06/09 07:54:55;;;;;;;5.40;2.20;;;;;;;16.10;64.60;100459.22;4210704;28;20071;-67
2022/06/09 07:57:01;;;;;;;11.90;1.92;;;;;;;16.17;64.09;100470.53;4209727;28;20149;-67
2022/06/09 07:59:07;;;;;;;6.03;1.80;;;;;;;16.22;63.68;100477.50;4208422;28;20040;-73
2022/06/09 08:01:10;;;;;;;6.38;2.05;;;;;;;16.26;63.96;100464.34;4209804;28;20079;-74
2022/06/09 08:03:18;;;;;;;7.30;1.77;;;;;;;16.20;63.40;100475.75;4213713;28;20093;-76
2022/06/09 08:05:23;;;;;;;7.45;2.47;;;;;;;16.13;63.70;100467.06;4212696;28;20127;-63
2022/06/09 08:07:27;;;;;;;7.30;2.15;;;;;;;16.10;64.15;100471.47;4211604;28;20424;-68
2022/06/09 08:09:30;;;;;;;11.50;3.67;;;;;;;15.93;63.87;100472.50;4210647;28;20055;-70
2022/06/09 08:11:36;;;;;;;6.20;1.65;;;;;;;15.92;64.37;100478.59;4205354;28;20492;-68
2022/06/09 08:13:39;;;;;;;6.90;2.13;;;;;;;15.92;64.26;100478.59;4212622;28;20036;-69
2022/06/09 08:15:44;;;;;;;10.30;2.45;;;;;;;15.95;64.84;100477.72;4213477;28;20090;-66
2022/06/09 08:17:47;;;;;;;9.73;3.10;;;;;;;15.92;64.42;100472.50;4213157;28;20029;-69
2022/06/09 08:19:50;;;;;;;12.38;2.40;;;;;;;15.92;64.24;100486.47;4213522;28;20144;-67
2022/06/09 08:21:53;;;;;;;7.15;2.25;;;;;;;15.90;64.36;100488.22;4215130;28;20097;-68
2022/06/09 08:23:58;;;;;;;6.38;1.63;;;;;;;15.90;64.08;100482.13;4215391;28;20086;-70
2022/06/09 08:26:02;;;;;;;;;;;;;;;15.85;64.62;100487.41;4199953;28;20047;-68
2022/06/09 08:28:06;;;;;;;9.52;2.20;;;;;;;15.78;63.93;100488.28;4205511;28;19920;-69
2022/06/09 08:30:14;;;;;;;8.95;2.30;;;;;;;15.81;64.36;100502.28;4216046;28;20082;-70
2022/06/09 08:32:17;;;;;;;6.75;2.58;;;;;;;15.82;64.05;100505.78;4215502;28;20043;-69
2022/06/09 08:34:19;;;;;;;9.20;2.50;;;;;;;15.91;64.48;100500.44;4214067;28;20068;-69
2022/06/09 08:36:23;;;;;;;10.30;2.05;;;;;;;16.08;63.96;100502.06;4214414;28;20055;-69
2022/06/09 08:38:26;;;;;;;7.72;2.53;;;;;;;16.24;64.35;100503.69;4215113;28;20130;-66
2022/06/09 08:40:37;;;;;;;7.70;2.45;;;;;;;16.42;63.63;100507.06;4212103;28;20039;-68
2022/06/09 08:42:54;;;;;;;9.63;2.30;;;;;;;16.52;63.58;100506.06;4228726;28;20115;-67
2022/06/09 08:45:02;;;;;;;10.23;2.58;;;;;;;16.52;63.16;100500.84;4214442;28;20050;-67
2022/06/09 08:47:13;;;;;;;7.18;2.20;;;;;;;16.50;63.12;100515.69;4213768;28;20040;-67
2022/06/09 08:49:32;;;;;;;6.72;2.13;;;;;;;16.56;63.23;100515.66;4206010;28;20465;-69
2022/06/09 08:51:40;;;;;;;9.00;2.13;;;;;;;16.49;63.07;100517.47;4207249;28;20054;-69
2022/06/09 08:53:48;;;;;;;6.60;1.83;;;;;;;16.51;62.22;100517.44;4209283;28;20032;-68
2022/06/09 08:55:56;;;;;;;9.20;1.77;;;;;;;16.50;62.13;100520.94;4212202;28;20044;-66
2022/06/09 08:58:03;;;;;;;8.50;1.90;;;;;;;16.43;62.15;100514.91;4194689;28;20160;-68
2022/06/09 09:00:14;;;;;;;11.18;2.40;;;;;;;16.48;62.25;100525.34;4206415;28;20040;-68
2022/06/09 09:02:26;;;;;;;8.05;1.80;;;;;;;16.54;62.51;100527.91;4212601;28;20044;-69
2022/06/09 09:04:36;;;;;;;12.00;2.28;;;;;;;16.68;62.54;100525.19;4216033;28;20063;-66
2022/06/09 09:06:43;;;;;;;6.13;1.83;;;;;;;16.76;62.19;100512.81;4197195;28;20597;-68
2022/06/09 09:08:47;;;;;;;8.30;1.65;;;;;;;16.87;62.28;100520.59;4214488;28;20123;-68
2022/06/09 09:11:07;;;;;;;9.43;2.20;;;;;;;16.90;61.26;100521.47;4207420;28;20061;-68
2022/06/09 09:13:23;;;;;;;8.40;2.40;;;;;;;17.04;60.95;100517.81;4215890;28;20093;-69
2022/06/09 09:15:30;;;;;;;10.90;2.55;;;;;;;17.20;60.82;100518.50;4216029;28;20105;-68
2022/06/09 09:17:44;;;;;;;12.00;1.65;;;;;;;17.37;60.60;100520.91;4215260;28;20405;-69
2022/06/09 09:19:53;;;;;;;7.63;2.58;;;;;;;17.36;60.37;100521.78;4212260;28;20036;-69
2022/06/09 09:22:04;;;;;;;5.65;1.80;;;;;;;17.35;60.32;100522.72;4210392;28;20135;-67
2022/06/09 09:24:19;;;;;;;9.02;2.45;;;;;;;17.30;60.22;100521.88;4215765;28;20138;-69
2022/06/09 09:26:29;;;;;;;7.03;1.85;;;;;;;17.26;60.38;100532.44;4197042;28;20049;-68
2022/06/09 09:28:43;;;;;;;6.00;1.85;;;;;;;17.34;60.76;100521.81;4198900;28;20033;-69
2022/06/09 09:30:55;;;;;;;9.40;1.90;;;;;;;17.46;60.54;100531.31;4207363;28;20040;-69
2022/06/09 09:32:58;;;;;;;8.10;2.00;;;;;;;17.60;61.15;100539.88;4211423;28;20126;-69
2022/06/09 09:35:01;;;;;;;9.10;2.15;;;;;;;17.78;60.38;100533.50;4214254;28;20048;-69
2022/06/09 09:37:19;;;;;;;6.28;1.75;;;;;;;17.61;60.04;100536.38;4212921;28;20036;-68
2022/06/09 09:39:30;;;;;;;4.72;1.70;;;;;;;17.44;59.79;100533.94;4214731;28;20064;-69
2022/06/09 09:41:37;;;;;;;5.35;1.67;;;;;;;17.39;60.08;100541.03;4215215;28;20579;-69
2022/06/09 09:43:41;;;;;;;8.38;1.92;;;;;;;17.38;59.86;100539.28;4215432;28;20521;-69
2022/06/09 09:45:47;;;;;;;9.18;1.80;;;;;;;17.55;59.88;100540.81;4213656;28;20059;-68
2022/06/09 09:47:54;;;;;;;11.45;2.65;;;;;;;17.65;58.87;100541.56;4210181;28;20048;-67
2022/06/09 09:50:03;;;;;;;8.38;3.00;;;;;;;17.76;58.55;100534.41;4204396;28;20040;-68